sensor_id;sensor_type;location;lat;lon;timestamp;P1;durP1;ratioP1;P2;durP2;ratioP2
32455;SDS011;18912;43.270;27.942;2022-12-29T00:02:11;9.75;;;2.08;;
32455;SDS011;18912;43.270;27.942;2022-12-29T00:04:37;5.80;;;2.38;;
32455;SDS011;18912;43.270;27.942;2022-12-29T00:07:03;4.90;;;2.17;;
32455;SDS011;18912;43.270;27.942;2022-12-29T00:09:32;8.43;;;2.33;;
32455;SDS011;18912;43.270;27.942;2022-12-29T00:14:24;5.07;;;2.03;;
32455;SDS011;18912;43.270;27.942;2022-12-29T00:17:08;4.75;;;2.55;;
32455;SDS011;18912;43.270;27.942;2022-12-29T00:19:33;7.60;;;2.50;;
32455;SDS011;18912;43.270;27.942;2022-12-29T00:22:17;9.25;;;3.20;;
32455;SDS011;18912;43.270;27.942;2022-12-29T00:25:03;8.52;;;2.60;;
32455;SDS011;18912;43.270;27.942;2022-12-29T00:27:47;7.90;;;2.85;;
32455;SDS011;18912;43.270;27.942;2022-12-29T00:30:31;14.80;;;3.03;;
32455;SDS011;18912;43.270;27.942;2022-12-29T00:33:16;13.32;;;3.35;;
32455;SDS011;18912;43.270;27.942;2022-12-29T00:38:56;7.00;;;2.58;;
32455;SDS011;18912;43.270;27.942;2022-12-29T00:41:44;31.05;;;12.02;;
32455;SDS011;18912;43.270;27.942;2022-12-29T00:44:28;9.38;;;3.38;;
32455;SDS011;18912;43.270;27.942;2022-12-29T00:46:54;12.23;;;4.60;;
32455;SDS011;18912;43.270;27.942;2022-12-29T00:49:19;15.53;;;6.30;;
32455;SDS011;18912;43.270;27.942;2022-12-29T00:52:02;11.38;;;5.40;;
32455;SDS011;18912;43.270;27.942;2022-12-29T00:54:33;25.00;;;11.10;;
32455;SDS011;18912;43.270;27.942;2022-12-29T00:57:00;22.73;;;8.10;;
32455;SDS011;18912;43.270;27.942;2022-12-29T00:59:27;16.85;;;7.45;;
32455;SDS011;18912;43.270;27.942;2022-12-29T01:01:53;17.70;;;7.47;;
32455;SDS011;18912;43.270;27.942;2022-12-29T01:04:20;16.38;;;5.60;;
32455;SDS011;18912;43.270;27.942;2022-12-29T01:06:47;20.70;;;8.65;;
32455;SDS011;18912;43.270;27.942;2022-12-29T01:09:12;13.33;;;5.90;;
32455;SDS011;18912;43.270;27.942;2022-12-29T01:11:56;12.90;;;5.28;;
32455;SDS011;18912;43.270;27.942;2022-12-29T01:14:23;17.10;;;6.03;;
32455;SDS011;18912;43.270;27.942;2022-12-29T01:19:14;17.30;;;4.47;;
32455;SDS011;18912;43.270;27.942;2022-12-29T01:21:41;16.95;;;6.63;;
32455;SDS011;18912;43.270;27.942;2022-12-29T01:24:06;17.67;;;6.57;;
32455;SDS011;18912;43.270;27.942;2022-12-29T01:26:32;27.83;;;8.63;;
32455;SDS011;18912;43.270;27.942;2022-12-29T01:28:57;17.87;;;5.60;;
32455;SDS011;18912;43.270;27.942;2022-12-29T01:31:23;9.30;;;4.73;;
32455;SDS011;18912;43.270;27.942;2022-12-29T01:33:48;9.07;;;2.90;;
32455;SDS011;18912;43.270;27.942;2022-12-29T01:36:15;5.57;;;2.67;;
32455;SDS011;18912;43.270;27.942;2022-12-29T01:38:43;8.95;;;2.65;;
32455;SDS011;18912;43.270;27.942;2022-12-29T01:41:10;9.05;;;2.80;;
32455;SDS011;18912;43.270;27.942;2022-12-29T01:43:38;8.63;;;2.60;;
32455;SDS011;18912;43.270;27.942;2022-12-29T01:49:20;7.00;;;2.88;;
32455;SDS011;18912;43.270;27.942;2022-12-29T01:51:57;9.32;;;4.15;;
32455;SDS011;18912;43.270;27.942;2022-12-29T01:54:30;8.93;;;3.55;;
32455;SDS011;18912;43.270;27.942;2022-12-29T01:57:02;9.32;;;3.55;;
32455;SDS011;18912;43.270;27.942;2022-12-29T01:59:34;5.40;;;2.63;;
32455;SDS011;18912;43.270;27.942;2022-12-29T02:02:05;10.05;;;3.10;;
32455;SDS011;18912;43.270;27.942;2022-12-29T02:04:32;13.02;;;4.78;;
32455;SDS011;18912;43.270;27.942;2022-12-29T02:07:05;11.95;;;3.80;;
32455;SDS011;18912;43.270;27.942;2022-12-29T02:09:35;15.05;;;3.75;;
32455;SDS011;18912;43.270;27.942;2022-12-29T02:12:01;9.37;;;3.63;;
32455;SDS011;18912;43.270;27.942;2022-12-29T02:14:27;11.35;;;3.80;;
32455;SDS011;18912;43.270;27.942;2022-12-29T02:16:58;8.70;;;3.38;;
32455;SDS011;18912;43.270;27.942;2022-12-29T02:22:25;10.18;;;3.40;;
32455;SDS011;18912;43.270;27.942;2022-12-29T02:46:53;18.95;;;8.60;;
32455;SDS011;18912;43.270;27.942;2022-12-29T02:49:30;11.05;;;4.35;;
32455;SDS011;18912;43.270;27.942;2022-12-29T02:52:06;97.18;;;39.28;;
32455;SDS011;18912;43.270;27.942;2022-12-29T02:54:35;26.00;;;10.88;;
32455;SDS011;18912;43.270;27.942;2022-12-29T02:59:48;10.90;;;4.60;;
32455;SDS011;18912;43.270;27.942;2022-12-29T03:12:56;10.95;;;2.55;;
32455;SDS011;18912;43.270;27.942;2022-12-29T03:18:51;7.65;;;2.97;;
32455;SDS011;18912;43.270;27.942;2022-12-29T03:24:15;11.25;;;5.00;;
32455;SDS011;18912;43.270;27.942;2022-12-29T03:26:43;9.45;;;3.00;;
32455;SDS011;18912;43.270;27.942;2022-12-29T03:29:13;8.55;;;3.13;;
32455;SDS011;18912;43.270;27.942;2022-12-29T03:31:41;14.50;;;3.30;;
32455;SDS011;18912;43.270;27.942;2022-12-29T03:34:07;10.00;;;3.15;;
32455;SDS011;18912;43.270;27.942;2022-12-29T03:36:37;8.70;;;3.63;;
32455;SDS011;18912;43.270;27.942;2022-12-29T03:39:09;14.23;;;4.00;;
32455;SDS011;18912;43.270;27.942;2022-12-29T03:41:37;12.13;;;3.50;;
32455;SDS011;18912;43.270;27.942;2022-12-29T03:44:06;11.52;;;3.80;;
32455;SDS011;18912;43.270;27.942;2022-12-29T03:46:32;10.43;;;2.83;;
32455;SDS011;18912;43.270;27.942;2022-12-29T03:48:57;8.70;;;3.47;;
32455;SDS011;18912;43.270;27.942;2022-12-29T03:51:23;7.47;;;3.20;;
32455;SDS011;18912;43.270;27.942;2022-12-29T03:53:48;19.10;;;3.47;;
32455;SDS011;18912;43.270;27.942;2022-12-29T03:56:14;8.70;;;3.43;;
32455;SDS011;18912;43.270;27.942;2022-12-29T03:58:39;13.87;;;3.97;;
32455;SDS011;18912;43.270;27.942;2022-12-29T04:01:05;13.73;;;3.90;;
32455;SDS011;18912;43.270;27.942;2022-12-29T04:03:30;7.47;;;3.17;;
32455;SDS011;18912;43.270;27.942;2022-12-29T04:05:56;7.73;;;3.77;;
32455;SDS011;18912;43.270;27.942;2022-12-29T04:08:21;14.43;;;5.53;;
32455;SDS011;18912;43.270;27.942;2022-12-29T04:10:50;15.03;;;6.97;;
32455;SDS011;18912;43.270;27.942;2022-12-29T04:13:15;67.35;;;23.83;;
32455;SDS011;18912;43.270;27.942;2022-12-29T04:15:42;39.60;;;14.63;;
32455;SDS011;18912;43.270;27.942;2022-12-29T04:18:08;50.33;;;19.00;;
32455;SDS011;18912;43.270;27.942;2022-12-29T04:20:34;37.47;;;14.07;;
32455;SDS011;18912;43.270;27.942;2022-12-29T04:23:18;100.53;;;36.25;;
32455;SDS011;18912;43.270;27.942;2022-12-29T04:25:46;95.37;;;32.50;;
32455;SDS011;18912;43.270;27.942;2022-12-29T04:28:13;51.05;;;21.67;;
32455;SDS011;18912;43.270;27.942;2022-12-29T04:30:39;17.88;;;7.53;;
32455;SDS011;18912;43.270;27.942;2022-12-29T04:33:04;15.13;;;5.47;;
32455;SDS011;18912;43.270;27.942;2022-12-29T04:35:30;16.00;;;6.40;;
32455;SDS011;18912;43.270;27.942;2022-12-29T04:37:55;15.70;;;7.00;;
32455;SDS011;18912;43.270;27.942;2022-12-29T04:40:21;20.43;;;7.30;;
32455;SDS011;18912;43.270;27.942;2022-12-29T04:42:46;14.03;;;7.07;;
32455;SDS011;18912;43.270;27.942;2022-12-29T04:45:12;19.23;;;6.63;;
32455;SDS011;18912;43.270;27.942;2022-12-29T04:47:37;10.00;;;3.67;;
32455;SDS011;18912;43.270;27.942;2022-12-29T04:50:03;7.33;;;2.60;;
32455;SDS011;18912;43.270;27.942;2022-12-29T04:54:54;9.70;;;3.30;;
32455;SDS011;18912;43.270;27.942;2022-12-29T04:57:20;8.63;;;3.37;;
32455;SDS011;18912;43.270;27.942;2022-12-29T04:59:45;6.67;;;3.37;;
32455;SDS011;18912;43.270;27.942;2022-12-29T05:02:11;10.43;;;3.83;;
32455;SDS011;18912;43.270;27.942;2022-12-29T05:04:36;11.30;;;3.60;;
32455;SDS011;18912;43.270;27.942;2022-12-29T05:07:02;7.67;;;3.90;;
32455;SDS011;18912;43.270;27.942;2022-12-29T05:09:27;8.13;;;3.57;;
32455;SDS011;18912;43.270;27.942;2022-12-29T05:11:52;15.30;;;3.50;;
32455;SDS011;18912;43.270;27.942;2022-12-29T05:14:18;14.07;;;3.40;;
32455;SDS011;18912;43.270;27.942;2022-12-29T05:16:43;20.27;;;5.00;;
32455;SDS011;18912;43.270;27.942;2022-12-29T05:19:09;11.77;;;4.23;;
32455;SDS011;18912;43.270;27.942;2022-12-29T05:21:34;9.87;;;3.20;;
32455;SDS011;18912;43.270;27.942;2022-12-29T05:24:00;11.70;;;3.57;;
32455;SDS011;18912;43.270;27.942;2022-12-29T05:26:25;19.10;;;6.20;;
32455;SDS011;18912;43.270;27.942;2022-12-29T05:28:51;8.23;;;4.85;;
32455;SDS011;18912;43.270;27.942;2022-12-29T05:31:16;9.77;;;4.07;;
32455;SDS011;18912;43.270;27.942;2022-12-29T05:33:42;19.23;;;4.20;;
32455;SDS011;18912;43.270;27.942;2022-12-29T05:36:08;11.97;;;3.43;;
32455;SDS011;18912;43.270;27.942;2022-12-29T05:38:34;7.97;;;3.50;;
32455;SDS011;18912;43.270;27.942;2022-12-29T05:41:00;14.80;;;3.72;;
32455;SDS011;18912;43.270;27.942;2022-12-29T05:43:26;11.80;;;3.22;;
32455;SDS011;18912;43.270;27.942;2022-12-29T05:45:52;18.40;;;7.43;;
32455;SDS011;18912;43.270;27.942;2022-12-29T05:48:18;13.93;;;7.07;;
32455;SDS011;18912;43.270;27.942;2022-12-29T05:50:50;12.77;;;4.70;;
32455;SDS011;18912;43.270;27.942;2022-12-29T05:53:16;15.45;;;3.78;;
32455;SDS011;18912;43.270;27.942;2022-12-29T05:55:43;14.02;;;4.70;;
32455;SDS011;18912;43.270;27.942;2022-12-29T06:00:34;17.33;;;3.90;;
32455;SDS011;18912;43.270;27.942;2022-12-29T06:03:00;10.63;;;4.53;;
32455;SDS011;18912;43.270;27.942;2022-12-29T06:05:25;12.90;;;3.50;;
32455;SDS011;18912;43.270;27.942;2022-12-29T06:07:51;13.37;;;3.33;;
32455;SDS011;18912;43.270;27.942;2022-12-29T06:10:16;11.03;;;3.33;;
32455;SDS011;18912;43.270;27.942;2022-12-29T06:12:42;4.63;;;2.10;;
32455;SDS011;18912;43.270;27.942;2022-12-29T06:15:07;9.03;;;2.20;;
32455;SDS011;18912;43.270;27.942;2022-12-29T06:17:33;8.82;;;2.83;;
32455;SDS011;18912;43.270;27.942;2022-12-29T06:19:59;7.83;;;2.90;;
32455;SDS011;18912;43.270;27.942;2022-12-29T06:22:24;12.07;;;3.83;;
32455;SDS011;18912;43.270;27.942;2022-12-29T06:24:50;6.63;;;2.53;;
32455;SDS011;18912;43.270;27.942;2022-12-29T06:27:15;28.47;;;7.23;;
32455;SDS011;18912;43.270;27.942;2022-12-29T06:29:41;20.83;;;6.60;;
32455;SDS011;18912;43.270;27.942;2022-12-29T06:32:07;16.33;;;5.72;;
32455;SDS011;18912;43.270;27.942;2022-12-29T06:34:33;11.67;;;3.43;;
32455;SDS011;18912;43.270;27.942;2022-12-29T06:36:59;23.30;;;11.67;;
32455;SDS011;18912;43.270;27.942;2022-12-29T06:39:24;33.40;;;13.80;;
32455;SDS011;18912;43.270;27.942;2022-12-29T06:41:53;20.73;;;7.90;;
32455;SDS011;18912;43.270;27.942;2022-12-29T06:44:22;20.05;;;10.52;;
32455;SDS011;18912;43.270;27.942;2022-12-29T06:46:47;25.60;;;7.82;;
32455;SDS011;18912;43.270;27.942;2022-12-29T06:49:13;15.43;;;6.87;;
32455;SDS011;18912;43.270;27.942;2022-12-29T06:51:39;11.40;;;7.13;;
32455;SDS011;18912;43.270;27.942;2022-12-29T06:54:05;12.03;;;5.17;;
32455;SDS011;18912;43.270;27.942;2022-12-29T06:56:30;6.37;;;3.70;;
32455;SDS011;18912;43.270;27.942;2022-12-29T06:58:56;5.70;;;2.00;;
32455;SDS011;18912;43.270;27.942;2022-12-29T07:01:21;7.50;;;3.43;;
32455;SDS011;18912;43.270;27.942;2022-12-29T07:03:47;12.27;;;5.20;;
32455;SDS011;18912;43.270;27.942;2022-12-29T07:06:12;12.83;;;3.63;;
32455;SDS011;18912;43.270;27.942;2022-12-29T07:08:38;14.13;;;4.40;;
32455;SDS011;18912;43.270;27.942;2022-12-29T07:11:04;5.57;;;2.77;;
32455;SDS011;18912;43.270;27.942;2022-12-29T07:13:30;10.48;;;3.53;;
32455;SDS011;18912;43.270;27.942;2022-12-29T07:15:55;13.63;;;3.10;;
32455;SDS011;18912;43.270;27.942;2022-12-29T07:18:21;9.37;;;2.57;;
32455;SDS011;18912;43.270;27.942;2022-12-29T07:20:46;4.67;;;2.83;;
32455;SDS011;18912;43.270;27.942;2022-12-29T07:23:11;8.53;;;2.90;;
32455;SDS011;18912;43.270;27.942;2022-12-29T07:25:37;7.03;;;2.37;;
32455;SDS011;18912;43.270;27.942;2022-12-29T07:28:03;11.93;;;3.97;;
32455;SDS011;18912;43.270;27.942;2022-12-29T07:30:28;6.40;;;3.03;;
32455;SDS011;18912;43.270;27.942;2022-12-29T07:32:54;10.13;;;3.60;;
32455;SDS011;18912;43.270;27.942;2022-12-29T07:35:20;7.70;;;3.00;;
32455;SDS011;18912;43.270;27.942;2022-12-29T07:37:45;10.33;;;2.87;;
32455;SDS011;18912;43.270;27.942;2022-12-29T07:40:11;13.93;;;2.87;;
32455;SDS011;18912;43.270;27.942;2022-12-29T07:45:03;12.52;;;3.80;;
32455;SDS011;18912;43.270;27.942;2022-12-29T07:47:29;14.07;;;4.68;;
32455;SDS011;18912;43.270;27.942;2022-12-29T07:49:54;10.47;;;2.80;;
32455;SDS011;18912;43.270;27.942;2022-12-29T07:52:19;7.23;;;3.27;;
32455;SDS011;18912;43.270;27.942;2022-12-29T07:54:45;9.10;;;3.70;;
32455;SDS011;18912;43.270;27.942;2022-12-29T07:57:10;10.50;;;4.20;;
32455;SDS011;18912;43.270;27.942;2022-12-29T07:59:36;10.00;;;3.30;;
32455;SDS011;18912;43.270;27.942;2022-12-29T08:02:02;11.53;;;3.53;;
32455;SDS011;18912;43.270;27.942;2022-12-29T08:04:27;6.57;;;3.20;;
32455;SDS011;18912;43.270;27.942;2022-12-29T08:06:53;9.33;;;3.87;;
32455;SDS011;18912;43.270;27.942;2022-12-29T08:09:18;33.07;;;9.47;;
32455;SDS011;18912;43.270;27.942;2022-12-29T08:11:44;24.80;;;9.63;;
32455;SDS011;18912;43.270;27.942;2022-12-29T08:14:10;33.60;;;13.67;;
32455;SDS011;18912;43.270;27.942;2022-12-29T08:16:35;11.67;;;4.50;;
32455;SDS011;18912;43.270;27.942;2022-12-29T08:19:01;10.37;;;3.60;;
32455;SDS011;18912;43.270;27.942;2022-12-29T08:23:53;9.07;;;3.75;;
32455;SDS011;18912;43.270;27.942;2022-12-29T08:26:18;9.20;;;4.67;;
32455;SDS011;18912;43.270;27.942;2022-12-29T08:28:44;8.57;;;4.93;;
32455;SDS011;18912;43.270;27.942;2022-12-29T08:31:10;20.67;;;5.23;;
32455;SDS011;18912;43.270;27.942;2022-12-29T08:33:35;13.60;;;5.53;;
32455;SDS011;18912;43.270;27.942;2022-12-29T08:36:02;9.93;;;4.57;;
32455;SDS011;18912;43.270;27.942;2022-12-29T08:38:28;14.70;;;4.35;;
32455;SDS011;18912;43.270;27.942;2022-12-29T08:40:56;12.55;;;5.82;;
32455;SDS011;18912;43.270;27.942;2022-12-29T08:43:23;13.35;;;6.18;;
32455;SDS011;18912;43.270;27.942;2022-12-29T08:45:49;22.30;;;8.68;;
32455;SDS011;18912;43.270;27.942;2022-12-29T08:48:14;19.17;;;8.33;;
32455;SDS011;18912;43.270;27.942;2022-12-29T08:50:43;19.13;;;5.50;;
32455;SDS011;18912;43.270;27.942;2022-12-29T08:53:09;17.67;;;7.85;;
32455;SDS011;18912;43.270;27.942;2022-12-29T08:55:35;9.60;;;4.10;;
32455;SDS011;18912;43.270;27.942;2022-12-29T08:58:00;12.48;;;5.20;;
32455;SDS011;18912;43.270;27.942;2022-12-29T09:00:26;11.97;;;5.47;;
32455;SDS011;18912;43.270;27.942;2022-12-29T09:02:51;15.23;;;7.00;;
32455;SDS011;18912;43.270;27.942;2022-12-29T09:05:17;14.60;;;6.60;;
32455;SDS011;18912;43.270;27.942;2022-12-29T09:07:42;12.47;;;5.00;;
32455;SDS011;18912;43.270;27.942;2022-12-29T09:10:08;26.10;;;7.23;;
32455;SDS011;18912;43.270;27.942;2022-12-29T09:12:34;21.30;;;6.27;;
32455;SDS011;18912;43.270;27.942;2022-12-29T09:14:59;15.30;;;6.83;;
32455;SDS011;18912;43.270;27.942;2022-12-29T09:17:25;12.57;;;5.27;;
32455;SDS011;18912;43.270;27.942;2022-12-29T09:20:05;17.73;;;6.95;;
32455;SDS011;18912;43.270;27.942;2022-12-29T09:22:31;23.80;;;6.72;;
32455;SDS011;18912;43.270;27.942;2022-12-29T09:24:57;9.73;;;5.13;;
32455;SDS011;18912;43.270;27.942;2022-12-29T09:27:22;17.73;;;6.67;;
32455;SDS011;18912;43.270;27.942;2022-12-29T09:29:48;9.87;;;5.20;;
32455;SDS011;18912;43.270;27.942;2022-12-29T09:32:13;23.40;;;7.40;;
32455;SDS011;18912;43.270;27.942;2022-12-29T09:34:39;21.80;;;9.23;;
32455;SDS011;18912;43.270;27.942;2022-12-29T09:37:04;10.80;;;5.40;;
32455;SDS011;18912;43.270;27.942;2022-12-29T09:39:30;16.27;;;7.33;;
32455;SDS011;18912;43.270;27.942;2022-12-29T09:42:06;16.33;;;7.60;;
32455;SDS011;18912;43.270;27.942;2022-12-29T09:47:39;9.68;;;5.22;;
32455;SDS011;18912;43.270;27.942;2022-12-29T09:50:14;17.55;;;5.68;;
32455;SDS011;18912;43.270;27.942;2022-12-29T09:52:48;14.05;;;6.35;;
32455;SDS011;18912;43.270;27.942;2022-12-29T09:55:22;15.85;;;6.38;;
32455;SDS011;18912;43.270;27.942;2022-12-29T09:57:59;13.05;;;6.50;;
32455;SDS011;18912;43.270;27.942;2022-12-29T10:00:37;12.15;;;5.07;;
32455;SDS011;18912;43.270;27.942;2022-12-29T10:03:17;14.50;;;6.05;;
32455;SDS011;18912;43.270;27.942;2022-12-29T10:16:29;10.55;;;5.70;;
32455;SDS011;18912;43.270;27.942;2022-12-29T10:24:43;17.23;;;7.82;;
32455;SDS011;18912;43.270;27.942;2022-12-29T10:27:13;21.38;;;10.65;;
32455;SDS011;18912;43.270;27.942;2022-12-29T10:29:48;10.90;;;5.95;;
32455;SDS011;18912;43.270;27.942;2022-12-29T10:32:26;12.00;;;4.82;;
32455;SDS011;18912;43.270;27.942;2022-12-29T10:34:54;15.27;;;5.80;;
32455;SDS011;18912;43.270;27.942;2022-12-29T10:37:34;12.43;;;5.00;;
32455;SDS011;18912;43.270;27.942;2022-12-29T10:41:10;12.07;;;5.20;;
32455;SDS011;18912;43.270;27.942;2022-12-29T10:43:51;13.63;;;4.57;;
32455;SDS011;18912;43.270;27.942;2022-12-29T10:46:18;12.43;;;4.32;;
32455;SDS011;18912;43.270;27.942;2022-12-29T10:48:45;11.82;;;4.95;;
32455;SDS011;18912;43.270;27.942;2022-12-29T10:51:16;12.75;;;5.00;;
32455;SDS011;18912;43.270;27.942;2022-12-29T10:59:10;12.98;;;4.90;;
32455;SDS011;18912;43.270;27.942;2022-12-29T11:01:52;14.02;;;5.38;;
32455;SDS011;18912;43.270;27.942;2022-12-29T11:06:58;9.82;;;4.50;;
32455;SDS011;18912;43.270;27.942;2022-12-29T11:09:29;10.13;;;4.45;;
32455;SDS011;18912;43.270;27.942;2022-12-29T11:11:57;14.73;;;5.22;;
32455;SDS011;18912;43.270;27.942;2022-12-29T11:14:27;10.33;;;5.13;;
32455;SDS011;18912;43.270;27.942;2022-12-29T11:16:58;9.65;;;5.82;;
32455;SDS011;18912;43.270;27.942;2022-12-29T11:19:25;10.85;;;6.00;;
32455;SDS011;18912;43.270;27.942;2022-12-29T11:21:53;17.15;;;6.80;;
32455;SDS011;18912;43.270;27.942;2022-12-29T11:24:23;15.98;;;5.13;;
32455;SDS011;18912;43.270;27.942;2022-12-29T11:26:51;19.20;;;7.25;;
32455;SDS011;18912;43.270;27.942;2022-12-29T11:29:28;10.85;;;6.22;;
32455;SDS011;18912;43.270;27.942;2022-12-29T11:32:10;30.00;;;9.30;;
32455;SDS011;18912;43.270;27.942;2022-12-29T11:34:44;50.08;;;14.48;;
32455;SDS011;18912;43.270;27.942;2022-12-29T11:37:14;23.83;;;8.05;;
32455;SDS011;18912;43.270;27.942;2022-12-29T11:39:54;45.10;;;12.60;;
32455;SDS011;18912;43.270;27.942;2022-12-29T11:42:23;20.87;;;6.27;;
32455;SDS011;18912;43.270;27.942;2022-12-29T11:44:55;25.85;;;8.57;;
32455;SDS011;18912;43.270;27.942;2022-12-29T11:47:30;45.27;;;11.90;;
32455;SDS011;18912;43.270;27.942;2022-12-29T11:50:02;53.85;;;15.68;;
32455;SDS011;18912;43.270;27.942;2022-12-29T11:52:32;16.17;;;6.85;;
32455;SDS011;18912;43.270;27.942;2022-12-29T11:55:02;51.35;;;14.10;;
32455;SDS011;18912;43.270;27.942;2022-12-29T11:57:30;24.95;;;8.27;;
32455;SDS011;18912;43.270;27.942;2022-12-29T11:59:59;27.92;;;11.13;;
32455;SDS011;18912;43.270;27.942;2022-12-29T12:05:16;19.65;;;7.95;;
32455;SDS011;18912;43.270;27.942;2022-12-29T12:07:52;21.95;;;9.20;;
32455;SDS011;18912;43.270;27.942;2022-12-29T12:15:49;16.55;;;7.05;;
32455;SDS011;18912;43.270;27.942;2022-12-29T12:18:34;17.65;;;7.63;;
32455;SDS011;18912;43.270;27.942;2022-12-29T12:21:06;11.93;;;5.72;;
32455;SDS011;18912;43.270;27.942;2022-12-29T12:28:56;10.23;;;5.18;;
32455;SDS011;18912;43.270;27.942;2022-12-29T12:34:19;15.60;;;6.35;;
32455;SDS011;18912;43.270;27.942;2022-12-29T12:36:56;15.88;;;6.10;;
32455;SDS011;18912;43.270;27.942;2022-12-29T12:53:06;16.60;;;6.60;;
32455;SDS011;18912;43.270;27.942;2022-12-29T12:58:49;18.52;;;7.88;;
32455;SDS011;18912;43.270;27.942;2022-12-29T13:07:12;37.77;;;19.43;;
32455;SDS011;18912;43.270;27.942;2022-12-29T13:18:25;20.77;;;9.10;;
32455;SDS011;18912;43.270;27.942;2022-12-29T13:24:24;38.08;;;18.00;;
32455;SDS011;18912;43.270;27.942;2022-12-29T13:29:44;16.42;;;7.68;;
32455;SDS011;18912;43.270;27.942;2022-12-29T13:37:52;33.22;;;10.27;;
32455;SDS011;18912;43.270;27.942;2022-12-29T13:40:26;17.50;;;7.43;;
32455;SDS011;18912;43.270;27.942;2022-12-29T13:42:59;14.63;;;6.75;;
32455;SDS011;18912;43.270;27.942;2022-12-29T13:45:28;18.88;;;6.18;;
32455;SDS011;18912;43.270;27.942;2022-12-29T13:48:01;18.02;;;6.43;;
32455;SDS011;18912;43.270;27.942;2022-12-29T13:50:35;13.80;;;6.10;;
32455;SDS011;18912;43.270;27.942;2022-12-29T13:53:11;19.60;;;7.20;;
32455;SDS011;18912;43.270;27.942;2022-12-29T13:55:56;22.23;;;8.27;;
32455;SDS011;18912;43.270;27.942;2022-12-29T13:58:44;21.77;;;7.63;;
32455;SDS011;18912;43.270;27.942;2022-12-29T14:03:52;15.90;;;7.20;;
32455;SDS011;18912;43.270;27.942;2022-12-29T14:06:24;19.67;;;7.30;;
32455;SDS011;18912;43.270;27.942;2022-12-29T14:08:52;20.25;;;8.23;;
32455;SDS011;18912;43.270;27.942;2022-12-29T14:11:35;23.95;;;9.60;;
32455;SDS011;18912;43.270;27.942;2022-12-29T14:14:21;28.70;;;9.02;;
32455;SDS011;18912;43.270;27.942;2022-12-29T14:16:49;27.67;;;8.55;;
32455;SDS011;18912;43.270;27.942;2022-12-29T14:19:17;34.33;;;9.65;;
32455;SDS011;18912;43.270;27.942;2022-12-29T14:21:55;27.42;;;8.85;;
32455;SDS011;18912;43.270;27.942;2022-12-29T14:34:53;46.83;;;24.50;;
32455;SDS011;18912;43.270;27.942;2022-12-29T14:37:24;28.13;;;15.07;;
32455;SDS011;18912;43.270;27.942;2022-12-29T14:40:02;29.70;;;12.13;;
32455;SDS011;18912;43.270;27.942;2022-12-29T14:42:31;27.77;;;12.65;;
32455;SDS011;18912;43.270;27.942;2022-12-29T14:52:58;39.88;;;19.50;;
32455;SDS011;18912;43.270;27.942;2022-12-29T14:58:21;19.40;;;10.02;;
32455;SDS011;18912;43.270;27.942;2022-12-29T15:00:47;24.80;;;10.90;;
32455;SDS011;18912;43.270;27.942;2022-12-29T15:03:20;24.27;;;9.95;;
32455;SDS011;18912;43.270;27.942;2022-12-29T15:05:53;27.95;;;11.98;;
32455;SDS011;18912;43.270;27.942;2022-12-29T15:08:22;37.40;;;12.95;;
32455;SDS011;18912;43.270;27.942;2022-12-29T15:13:35;39.95;;;15.88;;
32455;SDS011;18912;43.270;27.942;2022-12-29T15:16:03;47.10;;;19.67;;
32455;SDS011;18912;43.270;27.942;2022-12-29T15:18:33;46.45;;;22.13;;
32455;SDS011;18912;43.270;27.942;2022-12-29T15:21:00;37.35;;;13.18;;
32455;SDS011;18912;43.270;27.942;2022-12-29T15:23:28;27.60;;;9.85;;
32455;SDS011;18912;43.270;27.942;2022-12-29T15:26:00;26.85;;;9.32;;
32455;SDS011;18912;43.270;27.942;2022-12-29T15:28:26;23.90;;;11.02;;
32455;SDS011;18912;43.270;27.942;2022-12-29T15:31:01;25.60;;;10.48;;
32455;SDS011;18912;43.270;27.942;2022-12-29T15:33:29;30.10;;;10.85;;
32455;SDS011;18912;43.270;27.942;2022-12-29T15:35:56;30.33;;;11.17;;
32455;SDS011;18912;43.270;27.942;2022-12-29T15:38:27;34.25;;;11.63;;
32455;SDS011;18912;43.270;27.942;2022-12-29T15:40:55;30.17;;;11.68;;
32455;SDS011;18912;43.270;27.942;2022-12-29T15:43:29;31.60;;;10.65;;
32455;SDS011;18912;43.270;27.942;2022-12-29T15:46:10;28.70;;;9.60;;
32455;SDS011;18912;43.270;27.942;2022-12-29T15:48:37;18.88;;;9.00;;
32455;SDS011;18912;43.270;27.942;2022-12-29T15:51:04;24.77;;;8.10;;
32455;SDS011;18912;43.270;27.942;2022-12-29T15:53:48;23.05;;;7.90;;
32455;SDS011;18912;43.270;27.942;2022-12-29T15:56:16;29.10;;;9.07;;
32455;SDS011;18912;43.270;27.942;2022-12-29T15:58:51;20.40;;;8.38;;
32455;SDS011;18912;43.270;27.942;2022-12-29T16:01:18;23.38;;;8.55;;
32455;SDS011;18912;43.270;27.942;2022-12-29T16:03:57;23.23;;;10.48;;
32455;SDS011;18912;43.270;27.942;2022-12-29T16:09:01;17.42;;;10.25;;
32455;SDS011;18912;43.270;27.942;2022-12-29T16:11:44;22.67;;;11.05;;
32455;SDS011;18912;43.270;27.942;2022-12-29T16:14:16;24.83;;;10.98;;
32455;SDS011;18912;43.270;27.942;2022-12-29T16:16:44;16.42;;;8.82;;
32455;SDS011;18912;43.270;27.942;2022-12-29T16:19:14;20.40;;;10.27;;
32455;SDS011;18912;43.270;27.942;2022-12-29T16:21:44;17.77;;;9.40;;
32455;SDS011;18912;43.270;27.942;2022-12-29T16:29:52;23.60;;;11.20;;
32455;SDS011;18912;43.270;27.942;2022-12-29T16:32:22;31.75;;;12.20;;
32455;SDS011;18912;43.270;27.942;2022-12-29T16:34:51;26.55;;;11.98;;
32455;SDS011;18912;43.270;27.942;2022-12-29T16:37:42;24.08;;;11.27;;
32455;SDS011;18912;43.270;27.942;2022-12-29T16:50:32;22.33;;;8.75;;
32455;SDS011;18912;43.270;27.942;2022-12-29T16:52:58;16.45;;;7.97;;
32455;SDS011;18912;43.270;27.942;2022-12-29T16:55:25;16.50;;;8.30;;
32455;SDS011;18912;43.270;27.942;2022-12-29T16:57:51;22.48;;;10.10;;
32455;SDS011;18912;43.270;27.942;2022-12-29T17:00:22;35.15;;;18.92;;
32455;SDS011;18912;43.270;27.942;2022-12-29T17:02:49;30.23;;;15.38;;
32455;SDS011;18912;43.270;27.942;2022-12-29T17:05:19;31.13;;;14.95;;
32455;SDS011;18912;43.270;27.942;2022-12-29T17:07:45;75.27;;;32.47;;
32455;SDS011;18912;43.270;27.942;2022-12-29T17:10:11;26.83;;;12.73;;
32455;SDS011;18912;43.270;27.942;2022-12-29T17:12:38;20.10;;;10.82;;
32455;SDS011;18912;43.270;27.942;2022-12-29T17:17:42;27.02;;;12.32;;
32455;SDS011;18912;43.270;27.942;2022-12-29T17:22:41;27.92;;;12.10;;
32455;SDS011;18912;43.270;27.942;2022-12-29T17:25:10;23.77;;;11.47;;
32455;SDS011;18912;43.270;27.942;2022-12-29T17:27:41;32.90;;;13.70;;
32455;SDS011;18912;43.270;27.942;2022-12-29T17:30:25;22.20;;;10.17;;
32455;SDS011;18912;43.270;27.942;2022-12-29T17:32:52;29.55;;;15.45;;
32455;SDS011;18912;43.270;27.942;2022-12-29T17:35:22;22.88;;;10.32;;
32455;SDS011;18912;43.270;27.942;2022-12-29T17:37:49;23.48;;;10.10;;
32455;SDS011;18912;43.270;27.942;2022-12-29T17:40:26;29.75;;;14.15;;
32455;SDS011;18912;43.270;27.942;2022-12-29T17:42:54;19.75;;;11.40;;
32455;SDS011;18912;43.270;27.942;2022-12-29T17:45:30;23.00;;;12.00;;
32455;SDS011;18912;43.270;27.942;2022-12-29T17:47:57;19.90;;;10.95;;
32455;SDS011;18912;43.270;27.942;2022-12-29T17:50:25;29.83;;;10.52;;
32455;SDS011;18912;43.270;27.942;2022-12-29T17:53:04;19.70;;;11.02;;
32455;SDS011;18912;43.270;27.942;2022-12-29T17:55:31;38.55;;;20.55;;
32455;SDS011;18912;43.270;27.942;2022-12-29T17:57:58;23.27;;;10.95;;